createdAt,value
2022-10-22T00:00:47.484Z,50.27
2022-10-22T00:03:56.401Z,50.38
2022-10-22T00:06:46.413Z,50.38
2022-10-22T00:09:36.663Z,50.31
2022-10-22T00:12:27.108Z,50.27
2022-10-22T00:15:16.969Z,50.35
2022-10-22T00:18:07.008Z,50.35
2022-10-22T00:20:56.858Z,50.47
2022-10-22T00:23:46.724Z,50.40
2022-10-22T00:26:38.804Z,50.43
2022-10-22T00:29:28.664Z,50.18
2022-10-22T00:32:18.506Z,50.56
2022-10-22T00:35:09.141Z,50.38
2022-10-22T00:37:59.692Z,50.33
2022-10-22T00:40:49.580Z,50.44
2022-10-22T00:43:58.709Z,50.42
2022-10-22T00:46:48.622Z,50.39
2022-10-22T00:49:38.449Z,50.44
2022-10-22T00:52:28.747Z,50.43
2022-10-22T00:55:19.081Z,50.30
2022-10-22T00:58:08.924Z,50.47
2022-10-22T01:00:59.158Z,50.56
2022-10-22T01:03:49.125Z,50.43
2022-10-22T01:06:38.968Z,50.27
2022-10-22T01:09:34.365Z,50.41
2022-10-22T01:12:30.909Z,50.49
2022-10-22T01:15:27.277Z,50.45
2022-10-22T01:18:19.568Z,50.49
2022-10-22T01:21:16.857Z,50.57
2022-10-22T01:24:33.674Z,50.54
2022-10-22T01:27:33.301Z,50.48
2022-10-22T01:30:23.748Z,50.49
2022-10-22T01:33:17.152Z,50.49
2022-10-22T01:36:08.427Z,50.62
2022-10-22T01:38:59.260Z,50.56
2022-10-22T01:41:49.739Z,50.63
2022-10-22T01:44:39.638Z,50.53
2022-10-22T01:47:39.957Z,50.72
2022-10-22T01:50:43.450Z,50.80
2022-10-22T01:53:40.602Z,50.68
2022-10-22T01:56:40.480Z,50.57
2022-10-22T01:59:38.692Z,50.67
2022-10-22T02:02:37.511Z,50.59
2022-10-22T02:05:32.160Z,50.68
2022-10-22T02:08:23.752Z,50.84
2022-10-22T02:11:14.283Z,50.69
2022-10-22T02:14:04.994Z,50.72
2022-10-22T02:16:55.195Z,50.72
2022-10-22T02:19:47.916Z,50.73
2022-10-22T02:22:38.036Z,50.68
2022-10-22T02:25:31.843Z,50.65
2022-10-22T02:28:25.398Z,50.92
2022-10-22T02:31:19.087Z,50.84
2022-10-22T02:34:13.493Z,50.69
2022-10-22T02:37:04.180Z,50.84
2022-10-22T02:39:54.164Z,50.83
2022-10-22T02:42:44.070Z,50.81
2022-10-22T02:45:34.935Z,50.85
2022-10-22T02:48:24.868Z,50.85
2022-10-22T02:51:14.696Z,50.77
2022-10-22T02:54:04.779Z,50.84
2022-10-22T02:56:54.601Z,50.74
2022-10-22T02:59:44.827Z,50.86
2022-10-22T03:02:34.663Z,50.99
2022-10-22T03:05:24.651Z,50.86
2022-10-22T03:08:14.492Z,50.90
2022-10-22T03:11:04.324Z,50.89
2022-10-22T03:13:54.149Z,50.85
2022-10-22T03:16:44.284Z,50.83
2022-10-22T03:19:34.313Z,50.92
2022-10-22T03:22:26.399Z,50.73
2022-10-22T03:25:21.108Z,50.86
2022-10-22T03:28:11.533Z,50.76
2022-10-22T03:31:01.364Z,50.78
2022-10-22T03:33:51.222Z,50.78
2022-10-22T03:36:41.513Z,50.74
2022-10-22T03:39:32.982Z,50.72
2022-10-22T03:42:23.144Z,50.81
2022-10-22T03:45:13.153Z,50.85
2022-10-22T03:48:03.270Z,50.70
2022-10-22T03:50:53.104Z,50.91
2022-10-22T03:53:43.060Z,50.79
2022-10-22T03:56:33.557Z,50.65
2022-10-22T03:59:23.376Z,50.97
2022-10-22T04:02:14.172Z,50.82
2022-10-22T04:05:04.577Z,50.77
2022-10-22T04:07:54.479Z,50.81
2022-10-22T04:10:51.037Z,50.75
2022-10-22T04:13:41.443Z,50.76
2022-10-22T04:16:32.302Z,50.83
2022-10-22T04:19:22.435Z,50.82
2022-10-22T04:22:12.372Z,50.73
2022-10-22T04:25:02.676Z,50.72
2022-10-22T04:27:52.596Z,50.78
2022-10-22T04:30:42.566Z,50.82
2022-10-22T04:33:32.442Z,50.83
2022-10-22T04:36:22.580Z,50.80
2022-10-22T04:39:12.789Z,50.70
2022-10-22T04:42:03.319Z,50.73
2022-10-22T04:44:53.526Z,50.80
2022-10-22T04:47:43.753Z,50.53
2022-10-22T04:50:34.393Z,50.71
2022-10-22T04:53:24.780Z,50.74
2022-10-22T04:56:19.291Z,50.66
2022-10-22T04:59:12.000Z,50.70
2022-10-22T05:02:02.136Z,50.66
2022-10-22T05:04:51.998Z,50.76
2022-10-22T05:07:42.172Z,50.67
2022-10-22T05:10:32.340Z,50.48
2022-10-22T05:13:22.262Z,50.57
2022-10-22T05:16:12.510Z,50.59
2022-10-22T05:19:03.814Z,50.42
2022-10-22T05:21:54.701Z,50.64
2022-10-22T05:24:44.600Z,50.59
2022-10-22T05:27:34.471Z,50.50
2022-10-22T05:30:24.524Z,50.37
2022-10-22T05:33:14.693Z,50.42
2022-10-22T05:36:05.854Z,50.47
2022-10-22T05:38:56.660Z,50.38
2022-10-22T05:41:46.484Z,50.57
2022-10-22T05:44:36.897Z,50.68
2022-10-22T05:47:26.740Z,50.66
2022-10-22T05:50:17.156Z,50.68
2022-10-22T05:53:07.212Z,50.70
2022-10-22T05:55:57.100Z,50.68
2022-10-22T05:58:47.180Z,50.80
2022-10-22T06:01:38.079Z,50.71
2022-10-22T06:04:27.980Z,50.61
2022-10-22T06:07:17.887Z,50.55
2022-10-22T06:10:13.319Z,50.89
2022-10-22T06:13:06.747Z,50.54
2022-10-22T06:15:57.115Z,50.75
2022-10-22T06:18:47.258Z,50.70
2022-10-22T06:21:39.266Z,50.87
2022-10-22T06:24:29.503Z,50.70
2022-10-22T06:27:19.381Z,50.87
2022-10-22T06:30:12.076Z,50.97
2022-10-22T06:33:01.988Z,51.25
2022-10-22T06:35:51.952Z,51.20
2022-10-22T06:38:41.840Z,51.15
2022-10-22T06:41:32.045Z,51.07
2022-10-22T06:44:22.749Z,51.02
2022-10-22T06:47:12.685Z,51.09
2022-10-22T06:50:02.663Z,51.09
2022-10-22T06:52:52.613Z,51.07
2022-10-22T06:55:43.956Z,50.97
2022-10-22T06:58:33.902Z,50.89
2022-10-22T07:01:26.836Z,50.90
2022-10-22T07:04:16.778Z,51.04
2022-10-22T07:07:06.663Z,51.07
2022-10-22T07:09:56.587Z,50.94
2022-10-22T07:12:46.507Z,50.92
2022-10-22T07:15:36.416Z,50.85
2022-10-22T07:18:26.459Z,50.94
2022-10-22T07:21:17.928Z,50.96
2022-10-22T07:24:09.517Z,50.86
2022-10-22T07:26:59.643Z,50.78
2022-10-22T07:29:50.725Z,50.93
2022-10-22T07:32:40.788Z,50.84
2022-10-22T07:35:30.726Z,50.83
2022-10-22T07:38:20.647Z,51.08
2022-10-22T07:41:10.940Z,50.68
2022-10-22T07:44:00.918Z,50.89
2022-10-22T07:46:50.856Z,50.77
2022-10-22T07:49:41.064Z,51.03
2022-10-22T07:52:30.914Z,51.18
2022-10-22T07:55:21.196Z,50.93
2022-10-22T07:58:11.318Z,50.85
2022-10-22T08:01:01.870Z,50.73
2022-10-22T08:03:52.045Z,50.70
2022-10-22T08:06:45.754Z,50.61
2022-10-22T08:09:37.691Z,50.54
2022-10-22T08:12:27.785Z,50.33
2022-10-22T08:15:18.217Z,50.44
2022-10-22T08:18:08.446Z,50.33
2022-10-22T08:20:58.620Z,50.29
2022-10-22T08:23:48.922Z,50.26
2022-10-22T08:26:39.456Z,50.25
2022-10-22T08:29:31.205Z,50.19
2022-10-22T08:32:21.521Z,50.07
2022-10-22T08:35:14.109Z,50.10
2022-10-22T08:38:07.126Z,50.16
2022-10-22T08:41:03.348Z,49.87
2022-10-22T08:44:41.440Z,49.94
2022-10-22T08:47:58.611Z,49.92
2022-10-22T08:50:49.754Z,49.99
2022-10-22T08:53:41.697Z,49.89
2022-10-22T08:56:31.548Z,50.02
2022-10-22T08:59:23.469Z,49.83
2022-10-22T09:02:28.429Z,49.77
2022-10-22T09:05:35.045Z,49.94
2022-10-22T09:08:27.980Z,49.93
2022-10-22T09:11:28.422Z,49.83
2022-10-22T09:14:19.825Z,50.00
2022-10-22T09:17:19.114Z,49.97
2022-10-22T09:20:16.537Z,50.13
2022-10-22T09:23:21.140Z,50.20
2022-10-22T09:26:14.765Z,50.35
2022-10-22T09:29:05.052Z,50.56
2022-10-22T09:31:55.244Z,50.56
2022-10-22T09:34:46.833Z,50.51
2022-10-22T09:37:36.752Z,50.56
2022-10-22T09:40:27.120Z,50.72
2022-10-22T09:43:17.392Z,50.75
2022-10-22T09:46:14.131Z,50.95
2022-10-22T09:49:09.960Z,50.92
2022-10-22T09:52:00.976Z,50.93
2022-10-22T09:54:51.012Z,50.80
2022-10-22T09:57:43.677Z,50.84
2022-10-22T10:00:34.640Z,51.05
2022-10-22T10:03:27.492Z,51.15
2022-10-22T10:06:20.996Z,51.18
2022-10-22T10:09:16.450Z,51.43
2022-10-22T10:12:13.092Z,51.58
2022-10-22T10:15:12.002Z,51.75
2022-10-22T10:18:08.408Z,52.03
2022-10-22T10:21:06.732Z,52.23
2022-10-22T10:24:00.386Z,52.14
2022-10-22T10:26:54.224Z,52.36
2022-10-22T10:29:49.210Z,52.60
2022-10-22T10:32:55.235Z,52.62
2022-10-22T10:35:54.485Z,52.70
2022-10-22T10:38:53.708Z,52.95
2022-10-22T10:41:51.496Z,53.11
2022-10-22T10:44:59.883Z,53.17
2022-10-22T10:48:15.331Z,53.37
2022-10-22T10:51:12.870Z,53.60
2022-10-22T10:54:13.431Z,53.99
2022-10-22T10:57:09.904Z,53.88
2022-10-22T11:00:06.277Z,54.12
2022-10-22T11:03:34.720Z,53.43
2022-10-22T11:06:25.763Z,53.63
2022-10-22T11:09:23.486Z,54.05
2022-10-22T11:12:15.548Z,54.38
2022-10-22T11:15:12.625Z,54.51
2022-10-22T11:18:11.689Z,54.54
2022-10-22T11:21:21.330Z,54.58
2022-10-22T11:24:19.805Z,54.64
2022-10-22T11:27:23.316Z,54.78
2022-10-22T11:30:15.230Z,54.79
2022-10-22T11:33:06.979Z,54.93
2022-10-22T11:35:57.341Z,54.72
2022-10-22T11:38:47.228Z,54.45
2022-10-22T11:41:38.351Z,54.06
2022-10-22T11:44:29.705Z,53.81
2022-10-22T11:47:24.060Z,53.66
2022-10-22T11:50:22.312Z,53.81
2022-10-22T11:53:30.018Z,53.69
2022-10-22T11:56:27.247Z,53.46
2022-10-22T11:59:39.127Z,53.46
2022-10-22T12:02:45.486Z,53.45
2022-10-22T12:05:36.153Z,53.41
2022-10-22T12:08:26.996Z,53.51
2022-10-22T12:11:22.111Z,53.59
2022-10-22T12:14:32.258Z,53.65
2022-10-22T12:17:22.603Z,53.69
2022-10-22T12:20:15.903Z,53.70
2022-10-22T12:23:06.060Z,53.62
2022-10-22T12:25:56.025Z,53.64
2022-10-22T12:28:45.911Z,53.65
2022-10-22T12:31:38.717Z,53.78
2022-10-22T12:34:28.909Z,53.74
2022-10-22T12:37:18.942Z,53.87
2022-10-22T12:40:20.315Z,53.92
2022-10-22T12:43:13.839Z,53.97
2022-10-22T12:46:04.355Z,53.77
2022-10-22T12:48:55.490Z,53.90
2022-10-22T12:51:46.216Z,54.20
2022-10-22T12:54:36.128Z,54.11
2022-10-22T12:57:26.397Z,53.99
2022-10-22T13:00:26.855Z,54.16
2022-10-22T13:03:28.541Z,54.24
2022-10-22T13:06:25.973Z,54.05
2022-10-22T13:09:22.516Z,53.90
2022-10-22T13:12:17.123Z,54.95
2022-10-22T13:15:32.637Z,54.62
2022-10-22T13:18:24.584Z,54.66
2022-10-22T13:21:29.115Z,54.13
2022-10-22T13:24:23.814Z,54.28
2022-10-22T13:27:13.656Z,54.26
2022-10-22T13:30:17.532Z,53.98
2022-10-22T13:33:26.291Z,53.91
2022-10-22T13:36:16.653Z,53.75
2022-10-22T13:39:10.493Z,53.40
2022-10-22T13:42:00.524Z,53.06
2022-10-22T13:44:50.539Z,53.04
2022-10-22T13:47:40.737Z,53.07
2022-10-22T13:50:30.886Z,53.33
2022-10-22T13:53:23.227Z,54.08
2022-10-22T13:56:15.329Z,54.66
2022-10-22T13:59:05.356Z,54.99
2022-10-22T14:01:56.420Z,55.15
2022-10-22T14:04:46.646Z,55.26
2022-10-22T14:07:36.680Z,55.26
2022-10-22T14:10:26.644Z,55.24
2022-10-22T14:13:18.016Z,55.10
2022-10-22T14:16:11.213Z,55.28
2022-10-22T14:19:01.622Z,55.40
2022-10-22T14:21:51.661Z,55.31
2022-10-22T14:24:42.061Z,55.49
2022-10-22T14:27:31.953Z,55.85
2022-10-22T14:30:23.841Z,55.98
2022-10-22T14:33:16.098Z,56.09
2022-10-22T14:36:06.853Z,56.04
2022-10-22T14:38:56.801Z,55.95
2022-10-22T14:41:46.684Z,55.96
2022-10-22T14:44:36.760Z,55.88
2022-10-22T14:47:27.035Z,56.14
2022-10-22T14:50:17.491Z,55.89
2022-10-22T14:53:07.605Z,56.06
2022-10-22T14:55:59.026Z,55.97
2022-10-22T14:58:49.287Z,55.76
2022-10-22T15:01:39.977Z,55.41
2022-10-22T15:04:29.949Z,55.04
2022-10-22T15:07:21.004Z,54.95
2022-10-22T15:10:11.855Z,54.67
2022-10-22T15:13:01.764Z,54.17
2022-10-22T15:15:51.646Z,54.06
2022-10-22T15:18:41.525Z,53.72
2022-10-22T15:21:31.968Z,53.66
2022-10-22T15:24:22.185Z,53.49
2022-10-22T15:27:13.164Z,53.56
2022-10-22T15:32:57.917Z,54.26
2022-10-22T15:35:47.906Z,54.33
2022-10-22T15:38:37.782Z,54.55
2022-10-22T15:41:27.832Z,54.62
2022-10-22T15:44:19.988Z,54.71
2022-10-22T15:47:10.148Z,54.83
2022-10-22T15:50:00.293Z,54.80
2022-10-22T15:52:50.253Z,54.83
2022-10-22T15:55:40.274Z,54.60
2022-10-22T15:58:30.260Z,54.45
2022-10-22T16:01:20.256Z,54.50
2022-10-22T16:04:10.269Z,54.64
2022-10-22T16:07:00.381Z,54.31
2022-10-22T16:09:50.788Z,54.67
2022-10-22T16:12:42.099Z,54.66
2022-10-22T16:15:33.739Z,54.58
2022-10-22T16:18:23.770Z,55.27
2022-10-22T16:21:15.239Z,54.86
2022-10-22T16:24:06.928Z,54.69
2022-10-22T16:26:57.887Z,55.01
2022-10-22T16:29:47.820Z,54.72
2022-10-22T16:32:39.765Z,54.85
2022-10-22T16:35:29.994Z,54.68
2022-10-22T16:38:20.299Z,54.81
2022-10-22T16:41:12.382Z,54.79
2022-10-22T16:44:03.515Z,54.67
2022-10-22T16:46:56.680Z,54.48
2022-10-22T16:49:46.604Z,54.57
2022-10-22T16:52:36.688Z,54.26
2022-10-22T16:55:26.905Z,54.27
2022-10-22T16:58:17.055Z,54.27
2022-10-22T17:01:08.540Z,53.99
2022-10-22T17:04:00.198Z,53.77
2022-10-22T17:06:50.122Z,53.88
2022-10-22T17:09:40.298Z,53.66
2022-10-22T17:12:34.635Z,53.86
2022-10-22T17:15:24.783Z,53.98
2022-10-22T17:18:15.211Z,54.00
2022-10-22T17:21:06.419Z,54.19
2022-10-22T17:23:57.475Z,54.49
2022-10-22T17:26:47.805Z,54.26
2022-10-22T17:29:38.033Z,54.44
2022-10-22T17:32:29.182Z,54.23
2022-10-22T17:35:19.756Z,53.87
2022-10-22T17:38:10.067Z,53.23
2022-10-22T17:41:04.070Z,52.83
2022-10-22T17:43:55.952Z,52.38
2022-10-22T17:46:46.661Z,52.56
2022-10-22T17:49:36.537Z,53.10
2022-10-22T17:52:26.508Z,53.44
2022-10-22T17:55:17.545Z,53.77
2022-10-22T17:58:07.481Z,54.09
2022-10-22T18:00:57.701Z,54.43
2022-10-22T18:03:47.709Z,54.52
2022-10-22T18:06:37.603Z,54.50
2022-10-22T18:09:28.060Z,54.68
2022-10-22T18:12:18.023Z,54.86
2022-10-22T18:15:10.512Z,54.64
2022-10-22T18:18:00.449Z,54.71
2022-10-22T18:20:50.940Z,54.83
2022-10-22T18:23:40.895Z,54.78
2022-10-22T18:26:31.177Z,54.87
2022-10-22T18:29:21.374Z,54.78
2022-10-22T18:32:13.355Z,54.58
2022-10-22T18:35:03.954Z,54.65
2022-10-22T18:37:53.920Z,54.62
2022-10-22T18:40:46.212Z,54.61
2022-10-22T18:43:36.249Z,54.42
2022-10-22T18:46:26.548Z,54.51
2022-10-22T18:49:18.554Z,54.46
2022-10-22T18:52:08.752Z,54.32
2022-10-22T18:54:58.719Z,53.92
2022-10-22T18:57:48.606Z,53.91
2022-10-22T19:00:38.882Z,54.12
2022-10-22T19:03:29.076Z,54.13
2022-10-22T19:06:25.960Z,54.00
2022-10-22T19:09:16.040Z,53.93
2022-10-22T19:12:06.891Z,53.75
2022-10-22T19:14:57.598Z,53.79
2022-10-22T19:17:47.529Z,53.82
2022-10-22T19:20:38.280Z,53.93
2022-10-22T19:23:29.711Z,53.78
2022-10-22T19:26:20.879Z,53.96
2022-10-22T19:29:10.887Z,53.94
2022-10-22T19:32:01.256Z,53.88
2022-10-22T19:34:51.765Z,54.15
2022-10-22T19:37:46.196Z,54.41
2022-10-22T19:40:39.213Z,54.55
2022-10-22T19:43:29.056Z,54.54
2022-10-22T19:46:19.505Z,54.64
2022-10-22T19:49:10.031Z,54.65
2022-10-22T19:52:00.249Z,54.78
2022-10-22T19:54:50.263Z,54.86
2022-10-22T19:57:40.556Z,54.72
2022-10-22T20:00:31.514Z,54.55
2022-10-22T20:03:22.545Z,54.65
2022-10-22T20:06:13.680Z,54.82
2022-10-22T20:09:03.838Z,54.69
2022-10-22T20:11:53.879Z,54.66
2022-10-22T20:14:44.162Z,54.83
2022-10-22T20:17:34.157Z,54.85
2022-10-22T20:20:26.469Z,54.92
2022-10-22T20:23:16.794Z,55.06
2022-10-22T20:26:07.427Z,55.18
2022-10-22T20:28:57.570Z,54.87
2022-10-22T20:31:47.949Z,55.05
2022-10-22T20:34:40.836Z,54.99
2022-10-22T20:37:31.036Z,55.21
2022-10-22T20:40:20.974Z,55.42
2022-10-22T20:43:12.360Z,55.42
2022-10-22T20:46:02.814Z,55.20
2022-10-22T20:48:54.524Z,54.80
2022-10-22T20:51:47.154Z,54.78
2022-10-22T20:54:41.908Z,54.66
2022-10-22T20:57:31.845Z,54.61
2022-10-22T21:00:22.544Z,54.61
2022-10-22T21:03:12.752Z,54.57
2022-10-22T21:06:02.680Z,54.30
2022-10-22T21:08:53.293Z,54.30
2022-10-22T21:11:44.303Z,54.18
2022-10-22T21:14:34.490Z,54.23
2022-10-22T21:17:24.615Z,54.21
2022-10-22T21:20:19.739Z,54.22
2022-10-22T21:23:12.903Z,54.17
2022-10-22T21:26:02.995Z,54.06
2022-10-22T21:28:53.397Z,54.13
2022-10-22T21:31:43.304Z,54.04
2022-10-22T21:34:38.059Z,54.09
2022-10-22T21:37:29.878Z,54.00
2022-10-22T21:40:21.328Z,53.98
2022-10-22T21:43:11.275Z,54.13
2022-10-22T21:46:08.068Z,54.21
2022-10-22T21:49:00.915Z,54.07
2022-10-22T21:51:52.904Z,54.23
2022-10-22T21:54:42.783Z,54.45
2022-10-22T21:57:32.685Z,54.35
2022-10-22T22:00:23.162Z,54.25
2022-10-22T22:03:14.170Z,54.49
2022-10-22T22:06:06.033Z,54.36
2022-10-22T22:08:56.154Z,54.32
2022-10-22T22:11:46.299Z,54.38
2022-10-22T22:14:37.556Z,54.51
2022-10-22T22:17:27.451Z,54.48
2022-10-22T22:20:17.665Z,54.58
2022-10-22T22:23:07.535Z,54.39
2022-10-22T22:26:00.781Z,54.67
2022-10-22T22:28:50.667Z,54.55
2022-10-22T22:31:40.572Z,54.67
2022-10-22T22:34:30.518Z,54.57
2022-10-22T22:37:20.450Z,54.79
2022-10-22T22:40:12.536Z,54.60
2022-10-22T22:43:03.539Z,54.51
2022-10-22T22:46:01.579Z,54.77
2022-10-22T22:48:51.476Z,54.75
2022-10-22T22:51:42.915Z,54.50
2022-10-22T22:54:33.178Z,54.34
2022-10-22T22:57:23.016Z,54.53
2022-10-22T23:00:15.593Z,54.78
2022-10-22T23:03:05.696Z,54.80
2022-10-22T23:05:55.642Z,54.88
2022-10-22T23:08:49.484Z,54.71
2022-10-22T23:11:39.485Z,54.98
2022-10-22T23:14:29.526Z,54.88
2022-10-22T23:17:19.511Z,54.85
2022-10-22T23:20:10.977Z,54.80
2022-10-22T23:23:01.128Z,54.55
2022-10-22T23:25:51.086Z,54.59
2022-10-22T23:28:40.985Z,54.61
2022-10-22T23:31:30.992Z,54.66
2022-10-22T23:34:23.230Z,54.63
2022-10-22T23:37:13.060Z,54.62
2022-10-22T23:40:03.261Z,54.57
2022-10-22T23:42:53.205Z,54.61
2022-10-22T23:45:43.298Z,54.67
2022-10-22T23:48:33.387Z,54.71
2022-10-22T23:51:23.644Z,54.63
2022-10-22T23:54:14.856Z,54.57
2022-10-22T23:57:05.161Z,54.35
2022-10-22T23:59:55.228Z,54.48
